Time;durP1;ratioP1;P1;durP2;ratioP2;P2;SDS_P1;SDS_P2;PMS_P1;PMS_P2;Temp;Humidity;BMP_temperature;BMP_pressure;BME280_temperature;BME280_humidity;BME280_pressure;Samples;Min_cycle;Max_cycle;Signal;HPM_P1;HPM_P2
2024/01/16 00:01:10;;;;;;;;;;;;;;;-2.09;100.00;100880.66;5047967;28;19977;-71
2024/01/16 00:03:37;;;;;;;;;;;;;;;-2.04;100.00;100875.72;5054363;28;20284;-70
2024/01/16 00:06:03;;;;;;;;;;;;;;;-1.99;100.00;100883.59;5048913;28;20023;-71
2024/01/16 00:08:28;;;;;;;;;;;;;;;-1.96;100.00;100876.00;5031130;28;20012;-71
2024/01/16 00:10:53;;;;;;;;;;;;;;;-1.94;100.00;100869.22;5026248;28;19920;-70
2024/01/16 00:13:19;;;;;;;;;;;;;;;-1.93;100.00;100878.69;5025814;28;20380;-70
2024/01/16 00:15:44;;;;;;;;;;;;;;;-1.92;100.00;100883.03;5031487;28;19927;-70
2024/01/16 00:18:09;;;;;;;;;;;;;;;-1.96;100.00;100878.59;5022383;28;19927;-71
2024/01/16 00:20:35;;;;;;;;;;;;;;;-1.97;100.00;100879.38;5037060;28;20376;-71
2024/01/16 00:23:00;;;;;;;;;;;;;;;-1.96;100.00;100876.88;5056042;28;19994;-71
2024/01/16 00:25:26;;;;;;;;;;;;;;;-1.92;100.00;100872.75;5061493;28;20015;-70
2024/01/16 00:27:51;;;;;;;;;;;;;;;-1.86;100.00;100865.28;5057658;28;19958;-70
2024/01/16 00:30:17;;;;;;;;;;;;;;;-1.82;100.00;100879.13;5069092;28;19921;-70
2024/01/16 00:32:42;;;;;;;;;;;;;;;-1.79;100.00;100877.56;5053316;28;20386;-70
2024/01/16 00:35:10;;;;;;;;;;;;;;;-1.75;100.00;100876.00;5058578;28;19924;-70
2024/01/16 00:37:36;;;;;;;;;;;;;;;-1.68;100.00;100888.25;5052441;28;20282;-70
2024/01/16 00:40:04;;;;;;;;;;;;;;;-1.66;100.00;100885.75;5070373;28;19924;-70
2024/01/16 00:42:29;;;;;;;;;;;;;;;-1.65;100.00;100882.34;5058873;28;19920;-70
2024/01/16 00:44:54;;;;;;;;;;;;;;;-1.63;100.00;100884.16;5041731;28;19978;-70
2024/01/16 00:47:20;;;;;;;;;;;;;;;-1.60;100.00;100891.13;5062097;28;19927;-70
2024/01/16 00:49:45;;;;;;;;;;;;;;;-1.61;100.00;100884.22;5058485;28;19965;-70
2024/01/16 00:52:10;;;;;;;;;;;;;;;-1.57;100.00;100873.22;5050437;28;19920;-71
2024/01/16 00:54:36;;;;;;;;;;;;;;;-1.54;100.00;100870.78;5068802;28;19924;-70
2024/01/16 00:57:01;;;;;;;;;;;;;;;-1.50;100.00;100880.34;5040753;28;19920;-70
2024/01/16 00:59:27;;;;;;;;;;;;;;;-1.49;100.00;100874.41;5045310;28;20338;-70
2024/01/16 01:01:52;;;;;;;;;;;;;;;-1.47;100.00;100885.63;5061646;28;19917;-71
2024/01/16 01:04:17;;;;;;;;;;;;;;;-1.42;100.00;100902.09;5054558;28;19980;-70
2024/01/16 01:06:43;;;;;;;;;;;;;;;-1.41;100.00;100896.16;5056391;28;19920;-70
2024/01/16 01:09:11;;;;;;;;;;;;;;;-1.40;100.00;100902.16;5048491;28;19944;-70
2024/01/16 01:11:39;;;;;;;;;;;;;;;-1.38;100.00;100897.06;5067180;28;19982;-71
2024/01/16 01:14:04;;;;;;;;;;;;;;;-1.38;100.00;100886.78;5068061;28;19921;-71
2024/01/16 01:16:29;;;;;;;;;;;;;;;-1.33;100.00;100905.84;5069707;28;19931;-71
2024/01/16 01:18:55;;;;;;;;;;;;;;;-1.33;100.00;100900.69;5063575;28;20027;-71
2024/01/16 01:21:20;;;;;;;;;;;;;;;-1.28;100.00;100899.16;5069825;28;19943;-71
2024/01/16 01:23:48;;;;;;;;;;;;;;;-1.27;100.00;100896.63;5049984;28;19925;-71
2024/01/16 01:26:14;;;;;;;;;;;;;;;-1.26;100.00;100892.41;5045327;28;19928;-71
2024/01/16 01:28:41;;;;;;;;;;;;;;;-1.22;100.00;100894.25;5044889;28;19944;-71
2024/01/16 01:31:12;;;;;;;;;;;;;;;-1.25;100.00;100891.56;5069375;28;19966;-70
2024/01/16 01:33:39;;;;;;;;;;;;;;;-1.28;100.00;100889.78;5067872;28;19921;-71
2024/01/16 01:36:04;;;;;;;;;;;;;;;-1.28;100.00;100894.00;5045087;28;19925;-71
2024/01/16 01:38:29;;;;;;;;;;;;;;;-1.29;100.00;100893.16;5047701;28;20438;-71
2024/01/16 01:40:55;;;;;;;;;;;;;;;-1.28;100.00;100894.91;5050349;28;19924;-71
2024/01/16 01:43:26;;;;;;;;;;;;;;;-1.28;100.00;100891.44;5072050;28;19924;-71
2024/01/16 01:46:14;;;;;;;;;;;;;;;-1.27;100.00;100888.94;5056122;28;20375;-71
2024/01/16 01:48:43;;;;;;;;;;;;;;;-1.26;100.00;100894.97;5067258;28;19916;-71
2024/01/16 01:51:09;;;;;;;;;;;;;;;-1.24;100.00;100901.03;5050977;28;20399;-71
2024/01/16 01:53:35;;;;;;;;;;;;;;;-1.22;100.00;100909.69;5069683;28;19917;-70
2024/01/16 01:56:03;;;;;;;;;;;;;;;-1.21;100.00;100908.84;5055679;28;19930;-71
2024/01/16 01:58:28;;;;;;;;;;;;;;;-1.24;100.00;100911.31;5062970;28;19917;-71
2024/01/16 02:00:54;;;;;;;;;;;;;;;-1.25;100.00;100909.56;5067911;28;20360;-71
2024/01/16 02:03:20;;;;;;;;;;;;;;;-1.26;100.00;100902.69;5052046;28;20354;-71
2024/01/16 02:05:45;;;;;;;;;;;;;;;-1.27;100.00;100908.63;5051890;28;19974;-71
2024/01/16 02:08:13;;;;;;;;;;;;;;;-1.27;100.00;100917.22;5067872;28;19921;-71
2024/01/16 02:10:39;;;;;;;;;;;;;;;-1.27;100.00;100913.78;5052659;28;19920;-71
2024/01/16 02:13:05;;;;;;;;;;;;;;;-1.28;100.00;100910.34;5046064;28;20460;-71
2024/01/16 02:15:30;;;;;;;;;;;;;;;-1.29;100.00;100910.28;5050145;28;19924;-71
2024/01/16 02:17:57;;;;;;;;;;;;;;;-1.29;100.00;100908.56;5071858;28;20328;-71
2024/01/16 02:20:22;;;;;;;;;;;;;;;-1.27;100.00;100908.63;5073398;28;19924;-71
2024/01/16 02:22:48;;;;;;;;;;;;;;;-1.28;100.00;100900.06;5053101;28;19925;-69
2024/01/16 02:25:13;;;;;;;;;;;;;;;-1.25;100.00;100904.41;5052723;28;20317;-69
2024/01/16 02:27:39;;;;;;;;;;;;;;;-1.24;100.00;100901.03;5044971;28;19916;-69
2024/01/16 02:30:06;;;;;;;;;;;;;;;-1.22;100.00;100914.84;5039189;28;19964;-69
2024/01/16 02:32:31;;;;;;;;;;;;;;;-1.19;100.00;100904.66;5050251;28;19921;-69
2024/01/16 02:34:56;;;;;;;;;;;;;;;-1.20;100.00;100902.03;5065673;28;19919;-69
2024/01/16 02:37:22;;;;;;;;;;;;;;;-1.17;100.00;100909.84;5048893;28;19966;-69
2024/01/16 02:39:48;;;;;;;;;;;;;;;-1.15;100.00;100905.63;5051372;28;20412;-69
2024/01/16 02:42:13;;;;;;;;;;;;;;;-1.24;100.00;100909.59;5066401;28;19931;-69
2024/01/16 02:44:39;;;;;;;;;;;;;;;-1.27;100.00;100921.50;5072422;28;19924;-69
2024/01/16 02:47:07;;;;;;;;;;;;;;;-1.29;100.00;100923.13;5070994;28;20249;-69
2024/01/16 02:49:32;;;;;;;;;;;;;;;-1.33;100.00;100926.41;5070352;28;19972;-69
2024/01/16 02:51:58;;;;;;;;;;;;;;;-1.38;100.00;100926.22;5082359;28;20359;-69
2024/01/16 02:54:23;;;;;;;;;;;;;;;-1.40;100.00;100925.28;5045871;28;19928;-69
2024/01/16 02:56:49;;;;;;;;;;;;;;;-1.44;100.00;100924.31;5057556;28;20014;-69
2024/01/16 02:59:14;;;;;;;;;;;;;;;-1.47;100.00;100913.03;5077376;28;19912;-69
2024/01/16 03:01:39;;;;;;;;;;;;;;;-1.45;100.00;100917.41;5050717;28;19925;-69
2024/01/16 03:04:05;;;;;;;;;;;;;;;-1.42;100.00;100930.38;5052582;28;19982;-69
2024/01/16 03:06:30;;;;;;;;;;;;;;;-1.32;100.00;100933.28;5070892;28;19921;-69
2024/01/16 03:08:55;;;;;;;;;;;;;;;-1.29;100.00;100926.56;5053122;28;19924;-69
2024/01/16 03:11:21;;;;;;;;;;;;;;;-1.17;100.00;100928.72;5054377;28;20261;-70
2024/01/16 03:13:46;;;;;;;;;;;;;;;-1.13;100.00;100935.75;5055704;28;20277;-69
2024/01/16 03:16:11;;;;;;;;;;;;;;;-1.14;100.00;100928.84;5069231;28;20008;-69
2024/01/16 03:18:37;;;;;;;;;;;;;;;-0.98;100.00;100919.97;5053475;28;19925;-69
2024/01/16 03:21:03;;;;;;;;;;;;;;;-1.03;100.00;100915.50;5071616;28;19916;-69
2024/01/16 03:23:29;;;;;;;;;;;;;;;-1.02;100.00;100923.28;5068787;28;19928;-69
2024/01/16 03:25:54;;;;;;;;;;;;;;;-1.01;100.00;100930.16;5039329;28;20323;-69
2024/01/16 03:28:20;;;;;;;;;;;;;;;-1.03;100.00;100926.69;5060491;28;20039;-69
2024/01/16 03:30:46;;;;;;;;;;;;;;;-1.08;100.00;100929.09;5040943;28;19967;-69
2024/01/16 03:33:11;;;;;;;;;;;;;;;-1.10;100.00;100923.00;5053595;28;19952;-69
2024/01/16 03:35:36;;;;;;;;;;;;;;;-1.09;100.00;100927.31;5070939;28;19920;-70
2024/01/16 03:38:02;;;;;;;;;;;;;;;-1.12;100.00;100924.66;5048864;28;20423;-69
2024/01/16 03:40:27;;;;;;;;;;;;;;;-1.06;100.00;100927.44;5077768;28;19960;-69
2024/01/16 03:42:52;;;;;;;;;;;;;;;-1.09;100.00;100929.91;5054857;28;19921;-69
2024/01/16 03:45:18;;;;;;;;;;;;;;;-1.06;100.00;100924.00;5053715;28;20380;-69
2024/01/16 03:47:43;;;;;;;;;;;;;;;-1.07;100.00;100922.22;5052013;28;19927;-69
2024/01/16 03:50:08;;;;;;;;;;;;;;;-1.03;100.00;100924.09;5042723;28;19920;-69
2024/01/16 03:52:36;;;;;;;;;;;;;;;-1.05;100.00;100921.47;5052414;28;19921;-69
2024/01/16 03:55:02;;;;;;;;;;;;;;;-1.05;100.00;100921.47;5065331;28;19924;-69
2024/01/16 03:57:27;;;;;;;;;;;;;;;-1.02;100.00;100912.09;5050444;28;20390;-69
2024/01/16 03:59:53;;;;;;;;;;;;;;;-1.05;100.00;100918.91;5050806;28;19931;-70
2024/01/16 04:02:18;;;;;;;;;;;;;;;-1.06;100.00;100916.28;5043863;28;19931;-69
2024/01/16 04:04:46;;;;;;;;;;;;;;;-1.07;100.00;100914.53;5050258;28;20323;-69
2024/01/16 04:07:11;;;;;;;;;;;;;;;-1.09;100.00;100909.31;5053991;28;19927;-69
2024/01/16 04:09:37;;;;;;;;;;;;;;;-1.10;100.00;100904.13;5039433;28;20027;-69
2024/01/16 04:12:02;;;;;;;;;;;;;;;-1.13;100.00;100898.88;5042415;28;19927;-69
2024/01/16 04:14:27;;;;;;;;;;;;;;;-1.15;100.00;100901.38;5071806;28;20433;-69
2024/01/16 04:16:53;;;;;;;;;;;;;;;-1.20;100.00;100897.75;5047411;28;19947;-70
2024/01/16 04:19:18;;;;;;;;;;;;;;;-1.27;100.00;100899.22;5044728;28;19928;-70
2024/01/16 04:21:43;;;;;;;;;;;;;;;-1.31;100.00;100888.75;5053965;28;19926;-69
2024/01/16 04:24:09;;;;;;;;;;;;;;;-1.35;100.00;100890.38;5051642;28;19935;-70
2024/01/16 04:26:35;;;;;;;;;;;;;;;-1.40;100.00;100885.03;5069688;28;19951;-69
2024/01/16 04:29:01;;;;;;;;;;;;;;;-1.43;100.00;100882.34;5065183;28;19920;-69
2024/01/16 04:31:26;;;;;;;;;;;;;;;-1.47;100.00;100879.59;5052507;28;20349;-69
2024/01/16 04:33:52;;;;;;;;;;;;;;;-1.49;100.00;100883.81;5052589;28;19920;-70
2024/01/16 04:36:17;;;;;;;;;;;;;;;-1.54;100.00;100881.06;5038944;28;19924;-69
2024/01/16 04:38:42;;;;;;;;;;;;;;;-1.57;100.00;100875.81;5045884;28;20293;-69
2024/01/16 04:41:08;;;;;;;;;;;;;;;-1.59;100.00;100888.59;5070447;28;20376;-70
2024/01/16 04:43:33;;;;;;;;;;;;;;;-1.63;100.00;100888.44;5065452;28;19920;-69
2024/01/16 04:45:58;;;;;;;;;;;;;;;-1.66;100.00;100883.19;5044554;28;19936;-70
2024/01/16 04:48:24;;;;;;;;;;;;;;;-1.69;100.00;100883.94;5063576;28;19920;-70
2024/01/16 04:50:49;;;;;;;;;;;;;;;-1.71;100.00;100888.16;5052983;28;19931;-70
2024/01/16 04:53:14;;;;;;;;;;;;;;;-1.73;100.00;100882.06;5054021;28;19924;-69
2024/01/16 04:55:40;;;;;;;;;;;;;;;-1.72;100.00;100882.91;5050446;28;19924;-69
2024/01/16 04:58:05;;;;;;;;;;;;;;;-1.72;100.00;100890.63;5050224;28;19925;-69
2024/01/16 05:00:31;;;;;;;;;;;;;;;-1.76;100.00;100882.81;5052798;28;19929;-70
2024/01/16 05:02:56;;;;;;;;;;;;;;;-1.76;100.00;100890.50;5065968;28;19917;-69
2024/01/16 05:05:21;;;;;;;;;;;;;;;-1.79;100.00;100885.25;5051189;28;19921;-69
2024/01/16 05:07:47;;;;;;;;;;;;;;;-1.81;100.00;100881.75;5044221;28;19935;-69
2024/01/16 05:10:15;;;;;;;;;;;;;;;-1.81;100.00;100886.00;5047276;28;20007;-70
2024/01/16 05:12:41;;;;;;;;;;;;;;;-1.80;100.00;100885.19;5047062;28;19947;-69
2024/01/16 05:15:06;;;;;;;;;;;;;;;-1.81;100.00;100886.91;5053971;28;19929;-69
2024/01/16 05:17:32;;;;;;;;;;;;;;;-1.81;100.00;100878.31;5039539;28;19921;-69
2024/01/16 05:19:57;;;;;;;;;;;;;;;-1.80;100.00;100883.50;5067129;28;20267;-69
2024/01/16 05:22:23;;;;;;;;;;;;;;;-1.79;100.00;100872.41;5043091;28;19987;-69
2024/01/16 05:24:48;;;;;;;;;;;;;;;-1.77;100.00;100864.75;5047698;28;19925;-69
2024/01/16 05:27:16;;;;;;;;;;;;;;;-1.77;100.00;100868.22;5068088;28;20372;-69
2024/01/16 05:29:41;;;;;;;;;;;;;;;-1.75;100.00;100870.84;5047604;28;19925;-69
2024/01/16 05:32:07;;;;;;;;;;;;;;;-1.75;100.00;100864.00;5044972;28;19936;-69
2024/01/16 05:34:33;;;;;;;;;;;;;;;-1.75;100.00;100850.31;5046069;28;19920;-69
2024/01/16 05:36:58;;;;;;;;;;;;;;;-1.75;100.00;100850.31;5051824;28;19928;-69
2024/01/16 05:39:23;;;;;;;;;;;;;;;-1.73;100.00;100852.94;5070085;28;20368;-69
2024/01/16 05:41:49;;;;;;;;;;;;;;;-1.74;100.00;100849.47;5052475;28;19927;-69
2024/01/16 05:44:15;;;;;;;;;;;;;;;-1.73;100.00;100860.63;5061232;28;19917;-69
2024/01/16 05:46:41;;;;;;;;;;;;;;;-1.72;100.00;100854.66;5080724;28;19920;-69
2024/01/16 05:49:06;;;;;;;;;;;;;;;-1.71;100.00;100856.41;5054080;28;19946;-69
2024/01/16 05:51:32;;;;;;;;;;;;;;;-1.72;100.00;100852.09;5051225;28;19971;-69
2024/01/16 05:53:58;;;;;;;;;;;;;;;-1.72;100.00;100849.50;5047354;28;19924;-69
2024/01/16 05:56:23;;;;;;;;;;;;;;;-1.74;100.00;100844.31;5052776;28;20365;-69
2024/01/16 05:58:48;;;;;;;;;;;;;;;-1.76;100.00;100846.84;5070101;28;19920;-69
2024/01/16 06:01:13;;;;;;;;;;;;;;;-1.77;100.00;100839.06;5049617;28;19942;-69
2024/01/16 06:03:40;;;;;;;;;;;;;;;-1.79;100.00;100841.59;5045396;28;20080;-69
2024/01/16 06:06:06;;;;;;;;;;;;;;;-1.80;100.00;100852.66;5062844;28;19931;-69
2024/01/16 06:08:31;;;;;;;;;;;;;;;-1.85;100.00;100843.94;5060275;28;20019;-69
2024/01/16 06:10:56;;;;;;;;;;;;;;;-1.86;100.00;100844.72;5078779;28;20008;-69
2024/01/16 06:13:22;;;;;;;;;;;;;;;-1.89;100.00;100842.06;5057109;28;19932;-69
2024/01/16 06:15:47;;;;;;;;;;;;;;;-1.92;100.00;100839.38;5056047;28;19931;-69
2024/01/16 06:18:13;;;;;;;;;;;;;;;-1.94;100.00;100841.88;5069846;28;19917;-69
2024/01/16 06:20:38;;;;;;;;;;;;;;;-2.00;100.00;100839.06;5052501;28;20268;-69
2024/01/16 06:23:03;;;;;;;;;;;;;;;-2.04;100.00;100839.78;5056623;28;19925;-69
2024/01/16 06:25:29;;;;;;;;;;;;;;;-2.09;100.00;100839.56;5049144;28;19933;-69
2024/01/16 06:27:55;;;;;;;;;;;;;;;-2.10;100.00;100834.38;5075116;28;19916;-69
2024/01/16 06:30:20;;;;;;;;;;;;;;;-2.12;100.00;100842.03;5051830;28;19932;-69
2024/01/16 06:32:45;;;;;;;;;;;;;;;-2.13;100.00;100836.81;5044338;28;19920;-69
2024/01/16 06:35:12;;;;;;;;;;;;;;;-2.20;100.00;100838.25;5052630;28;20391;-69
2024/01/16 06:37:37;;;;;;;;;;;;;;;-2.24;100.00;100836.41;5072847;28;20175;-69
2024/01/16 06:40:04;;;;;;;;;;;;;;;-2.26;100.00;100843.16;5043023;28;20286;-69
2024/01/16 06:42:29;;;;;;;;;;;;;;;-2.31;100.00;100839.56;5046445;28;20440;-69
2024/01/16 06:44:54;;;;;;;;;;;;;;;-2.32;100.00;100842.91;5069603;28;20015;-69
2024/01/16 06:47:19;;;;;;;;;;;;;;;-2.33;100.00;100842.06;5072316;28;19916;-69
2024/01/16 06:49:45;;;;;;;;;;;;;;;-2.34;100.00;100844.53;5055120;28;19921;-69
2024/01/16 06:52:10;;;;;;;;;;;;;;;-2.36;100.00;100847.03;5044263;28;20307;-69
2024/01/16 06:54:35;;;;;;;;;;;;;;;-2.35;100.00;100847.94;5067868;28;19923;-69
2024/01/16 06:57:03;;;;;;;;;;;;;;;-2.37;100.00;100850.44;5072397;28;19962;-69
2024/01/16 06:59:28;;;;;;;;;;;;;;;-2.36;100.00;100848.75;5046139;28;19920;-69
2024/01/16 07:01:54;;;;;;;;;;;;;;;-2.35;100.00;100856.50;5050883;28;19927;-69
2024/01/16 07:04:20;;;;;;;;;;;;;;;-2.36;100.00;100851.31;5053278;28;19917;-69
2024/01/16 07:06:48;;;;;;;;;;;;;;;-2.34;100.00;100850.56;5072231;28;19926;-69
2024/01/16 07:09:13;;;;;;;;;;;;;;;-2.36;100.00;100848.75;5048093;28;19925;-69
2024/01/16 07:11:42;;;;;;;;;;;;;;;-2.37;100.00;100854.69;5054326;28;19928;-69
2024/01/16 07:14:09;;;;;;;;;;;;;;;-2.38;100.00;100860.66;5064419;28;19927;-69
2024/01/16 07:16:35;;;;;;;;;;;;;;;-2.37;100.00;100864.94;5072890;28;20065;-69
2024/01/16 07:19:01;;;;;;;;;;;;;;;-2.37;100.00;100867.50;5075881;28;20014;-69
2024/01/16 07:21:26;;;;;;;;;;;;;;;-2.35;100.00;100865.91;5071387;28;20395;-69
2024/01/16 07:23:51;;;;;;;;;;;;;;;-2.35;100.00;100877.03;5051465;28;19956;-69
2024/01/16 07:26:17;;;;;;;;;;;;;;;-2.32;100.00;100873.72;5051760;28;19935;-69
2024/01/16 07:28:42;;;;;;;;;;;;;;;-2.30;100.00;100879.78;5055780;28;19946;-69
2024/01/16 07:31:09;;;;;;;;;;;;;;;-2.31;100.00;100872.91;5081936;28;19916;-69
2024/01/16 07:33:37;;;;;;;;;;;;;;;-2.31;100.00;100870.34;5052618;28;19920;-69
2024/01/16 07:36:03;;;;;;;;;;;;;;;-2.31;100.00;100883.19;5069008;28;20317;-69
2024/01/16 07:38:28;;;;;;;;;;;;;;;-2.31;100.00;100872.91;5055083;28;20010;-69
2024/01/16 07:40:53;;;;;;;;;;;;;;;-2.29;100.00;100871.28;5050235;28;20369;-69
2024/01/16 07:43:20;;;;;;;;;;;;;;;-2.27;100.00;100873.09;5051042;28;20230;-69
2024/01/16 07:45:45;;;;;;;;;;;;;;;-2.29;100.00;100869.56;5071520;28;20043;-69
2024/01/16 07:48:13;;;;;;;;;;;;;;;-2.28;100.00;100870.47;5061774;28;20062;-69
2024/01/16 07:50:38;;;;;;;;;;;;;;;-2.25;100.00;100874.88;5050531;28;19971;-69
2024/01/16 07:53:03;;;;;;;;;;;;;;;-2.27;100.00;100875.66;5070901;28;19920;-69
2024/01/16 07:55:29;;;;;;;;;;;;;;;-2.25;100.00;100883.44;5054342;28;19927;-69
2024/01/16 07:57:55;;;;;;;;;;;;;;;-2.25;100.00;100883.44;5070954;28;19923;-69
2024/01/16 08:00:20;;;;;;;;;;;;;;;-2.23;100.00;100886.91;5044030;28;20049;-69
2024/01/16 08:02:45;;;;;;;;;;;;;;;-2.20;100.00;100893.88;5047725;28;19960;-69
2024/01/16 08:05:11;;;;;;;;;;;;;;;-2.18;100.00;100895.69;5050167;28;20377;-69
2024/01/16 08:07:36;;;;;;;;;;;;;;;-2.16;100.00;100894.06;5051668;28;20110;-69
2024/01/16 08:10:02;;;;;;;;;;;;;;;-2.14;100.00;100896.69;5072293;28;19912;-69
2024/01/16 08:12:27;;;;;;;;;;;;;;;-2.12;100.00;100900.22;5053978;28;19924;-69
2024/01/16 08:14:52;;;;;;;;;;;;;;;-2.10;100.00;100898.56;5051089;28;19982;-69
2024/01/16 08:17:18;;;;;;;;;;;;;;;-2.09;100.00;100901.19;5046308;28;19921;-69
2024/01/16 08:19:43;;;;;;;;;;;;;;;-2.07;100.00;100893.56;5073679;28;19916;-69
2024/01/16 08:22:09;;;;;;;;;;;;;;;-2.05;100.00;100891.03;5044997;28;19927;-69
2024/01/16 08:24:34;;;;;;;;;;;;;;;-2.03;100.00;100905.69;5057744;28;19924;-69
2024/01/16 08:26:59;;;;;;;;;;;;;;;-2.02;100.00;100893.75;5070529;28;20627;-69
2024/01/16 08:29:25;;;;;;;;;;;;;;;-1.99;100.00;100896.44;5070538;28;19946;-69
2024/01/16 08:31:52;;;;;;;;;;;;;;;-1.97;100.00;100894.81;5070778;28;19921;-69
2024/01/16 08:34:18;;;;;;;;;;;;;;;-1.97;100.00;100894.81;5066404;28;20411;-69
2024/01/16 08:36:43;;;;;;;;;;;;;;;-1.94;100.00;100897.50;5063832;28;20376;-69
2024/01/16 08:39:10;;;;;;;;;;;;;;;-1.92;100.00;100890.75;5070378;28;19955;-69
2024/01/16 08:41:35;;;;;;;;;;;;;;;-1.89;100.00;100893.44;5069909;28;19927;-69
2024/01/16 08:44:01;;;;;;;;;;;;;;;-1.87;100.00;100902.06;5059124;28;19924;-69
2024/01/16 08:46:26;;;;;;;;;;;;;;;-1.84;100.00;100891.94;5041796;28;19924;-69
2024/01/16 08:48:51;;;;;;;;;;;;;;;-1.81;100.00;100897.19;5064001;28;19920;-69
2024/01/16 08:51:17;;;;;;;;;;;;;;;-1.78;100.00;100905.00;5044041;28;19927;-69
2024/01/16 08:53:42;;;;;;;;;;;;;;;-1.75;100.00;100905.13;5051880;28;19928;-69
2024/01/16 08:56:08;;;;;;;;;;;;;;;-1.73;100.00;100894.91;5070862;28;19924;-69
2024/01/16 08:58:37;;;;;;;;;;;;;;;-1.70;100.00;100899.28;5050393;28;19921;-69
2024/01/16 09:01:03;;;;;;;;;;;;;;;-1.67;100.00;100900.25;5057748;28;20295;-69
2024/01/16 09:03:28;;;;;;;;;;;;;;;-1.65;100.00;100898.66;5070860;28;20007;-69
2024/01/16 09:05:53;;;;;;;;;;;;;;;-1.67;100.00;100901.97;5070476;28;19974;-69
2024/01/16 09:08:19;;;;;;;;;;;;;;;-1.64;100.00;100895.28;5048057;28;19956;-69
2024/01/16 09:10:44;;;;;;;;;;;;;;;-1.62;100.00;100897.91;5079147;28;19952;-69
2024/01/16 09:13:09;;;;;;;;;;;;;;;-1.57;100.00;100897.25;5048074;28;19993;-69
2024/01/16 09:15:34;;;;;;;;;;;;;;;-1.51;100.00;100903.44;5048645;28;20329;-69
2024/01/16 09:18:00;;;;;;;;;;;;;;;-1.48;100.00;100894.16;5053612;28;20423;-69
2024/01/16 09:20:25;;;;;;;;;;;;;;;-1.44;100.00;100901.19;5052852;28;19978;-69
2024/01/16 09:22:52;;;;;;;;;;;;;;;-1.38;100.00;100894.50;5049730;28;20083;-69
2024/01/16 09:25:17;;;;;;;;;;;;;;;-1.34;100.00;100893.81;5051296;28;20051;-69
2024/01/16 09:27:42;;;;;;;;;;;;;;;-1.32;100.00;100900.75;5051516;28;20055;-69
2024/01/16 09:30:08;;;;;;;;;;;;;;;-1.24;100.00;100891.59;5049748;28;20390;-69
2024/01/16 09:32:34;;;;;;;;;;;;;;;-1.16;100.00;100888.47;5037776;28;19920;-69
2024/01/16 09:35:06;;;;;;;;;;;;;;;-1.07;100.00;100894.81;5054124;28;19921;-69
2024/01/16 09:37:31;;;;;;;;;;;;;;;-0.94;100.00;100885.84;5050899;28;20011;-69
2024/01/16 09:39:57;;;;;;;;;;;;;;;-0.79;100.00;100882.94;5037344;28;20019;-69
2024/01/16 09:42:23;;;;;;;;;;;;;;;-0.65;100.00;100878.25;5052086;28;19920;-69
2024/01/16 09:44:48;;;;;;;;;;;;;;;-0.46;100.00;100882.38;5083703;28;20010;-71
2024/01/16 09:47:15;;;;;;;;;;;;;;;-0.17;100.00;100892.75;5089843;28;19999;-72
2024/01/16 09:49:40;;;;;;;;;;;;;;;0.03;100.00;100900.22;5053487;28;19924;-69
2024/01/16 09:52:06;;;;;;;;;;;;;;;0.23;100.00;100898.28;5051886;28;19928;-69
2024/01/16 09:54:31;;;;;;;;;;;;;;;0.43;100.00;100906.63;5050502;28;19928;-72
2024/01/16 09:56:58;;;;;;;;;;;;;;;0.55;100.00;100901.88;5069989;28;19927;-72
2024/01/16 09:59:24;;;;;;;;;;;;;;;0.51;100.00;100893.16;5068693;28;20002;-72
2024/01/16 10:01:51;;;;;;;;;;;;;;;0.50;100.00;100894.00;5051436;28;20459;-72
2024/01/16 10:04:18;;;;;;;;;;;;;;;0.56;100.00;100888.16;5069755;28;20450;-72
2024/01/16 10:06:46;;;;;;;;;;;;;;;0.73;100.00;100874.84;5069648;28;19924;-72
2024/01/16 10:09:12;;;;;;;;;;;;;;;1.03;100.00;100869.69;5069711;28;19923;-72
2024/01/16 10:11:37;;;;;;;;;;;;;;;1.67;100.00;100859.31;5068820;28;20303;-72
2024/01/16 10:14:03;;;;;;;;;;;;;;;2.49;99.90;100866.38;5054070;28;19922;-72
2024/01/16 10:16:47;;;;;;;;;;;;;;;3.08;98.97;100864.13;5068937;28;20014;-72
2024/01/16 10:19:12;;;;;;;;;;;;;;;3.70;97.40;100870.41;5070008;28;19916;-72
2024/01/16 10:21:56;;;;;;;;;;;;;;;4.66;92.67;100870.09;5051600;28;19925;-72
2024/01/16 10:24:22;;;;;;;;;;;;;;;6.59;93.04;100864.06;5067756;28;20272;-69
2024/01/16 10:26:57;;;;;;;;;;;;;;;8.22;88.66;100856.50;5050792;28;19924;-69
2024/01/16 10:29:22;;;;;;;;;;;;;;;9.77;81.09;100851.38;5069642;28;20268;-69
2024/01/16 10:31:48;;;;;;;;;;;;;;;10.57;81.66;100845.38;5053317;28;19927;-69
2024/01/16 10:34:21;;;;;;;;;;;;;;;10.99;80.02;100847.50;5049735;28;20288;-69
2024/01/16 10:36:46;;;;;;;;;;;;;;;12.20;74.43;100846.50;5064323;28;19924;-69
2024/01/16 10:39:13;;;;;;;;;;;;;;;13.35;68.96;100843.28;5067544;28;19916;-69
2024/01/16 10:41:38;;;;;;;;;;;;;;;14.67;71.89;100844.28;5052975;28;20007;-69
2024/01/16 10:44:05;;;;;;;;;;;;;;;15.19;65.54;100839.22;5070251;28;20019;-69
2024/01/16 10:46:30;;;;;;;;;;;;;;;15.72;68.42;100834.91;5052905;28;20007;-69
2024/01/16 10:48:58;;;;;;;;;;;;;;;16.39;65.56;100834.38;5058070;28;20364;-69
2024/01/16 10:51:28;;;;;;;;;;;;;;;16.72;56.84;100835.81;5073034;28;20003;-69
2024/01/16 10:54:00;;;;;;;;;;;;;;;17.08;66.13;100838.03;5074850;28;19952;-70
2024/01/16 10:56:29;;;;;;;;;;;;;;;17.33;57.61;100845.03;5055777;28;20295;-70
2024/01/16 10:59:06;;;;;;;;;;;;;;;17.55;53.63;100840.56;5073789;28;19948;-70
2024/01/16 11:01:32;;;;;;;;;;;;;;;18.14;51.56;100830.19;5073024;28;19912;-69
2024/01/16 11:03:59;;;;;;;;;;;;;;;18.63;64.94;100833.31;5073453;28;19916;-69
2024/01/16 11:06:25;;;;;;;;;;;;;;;19.07;63.28;100834.84;5072738;28;19923;-69
2024/01/16 11:08:51;;;;;;;;;;;;;;;19.20;59.78;100828.00;5057097;28;19920;-70
2024/01/16 11:11:17;;;;;;;;;;;;;;;18.39;62.33;100823.78;5072546;28;19912;-70
2024/01/16 11:13:46;;;;;;;;;;;;;;;18.39;64.44;100823.78;5073088;28;19912;-69
2024/01/16 11:16:11;;;;;;;;;;;;;;;18.47;47.15;100821.66;5056475;28;20459;-69
2024/01/16 11:18:37;;;;;;;;;;;;;;;18.14;54.15;100817.78;5073552;28;19999;-70
2024/01/16 11:21:04;;;;;;;;;;;;;;;17.80;64.45;100824.50;5056362;28;19916;-70
2024/01/16 11:23:30;;;;;;;;;;;;;;;17.56;66.25;100821.09;5072598;28;19952;-70
2024/01/16 11:25:55;;;;;;;;;;;;;;;17.59;56.04;100820.13;5072603;28;20347;-70
2024/01/16 11:28:22;;;;;;;;;;;;;;;18.41;59.33;100811.34;5055418;28;20025;-69
2024/01/16 11:30:48;;;;;;;;;;;;;;;18.85;56.24;100814.59;5056143;28;19983;-70
2024/01/16 11:33:31;;;;;;;;;;;;;;;18.08;54.17;100812.75;5056040;28;19924;-70
2024/01/16 11:35:57;;;;;;;;;;;;;;;17.93;63.93;100810.75;5072682;28;20376;-70
2024/01/16 11:38:26;;;;;;;;;;;;;;;17.64;54.36;100811.03;5071110;28;19923;-70
2024/01/16 11:40:52;;;;;;;;;;;;;;;17.31;63.49;100806.22;5052678;28;19928;-70
2024/01/16 11:43:38;;;;;;;;;;;;;;;16.37;65.94;100806.25;5052082;28;19917;-70
2024/01/16 11:46:04;;;;;;;;;;;;;;;16.41;53.54;100805.25;5051777;28;19917;-70
2024/01/16 11:48:29;;;;;;;;;;;;;;;16.57;52.50;100806.38;5052323;28;19920;-69
2024/01/16 11:50:55;;;;;;;;;;;;;;;16.46;62.98;100797.97;5036778;28;20311;-70
2024/01/16 11:53:38;;;;;;;;;;;;;;;15.97;59.02;100802.41;5054518;28;20304;-70
2024/01/16 11:56:18;;;;;;;;;;;;;;;15.80;65.11;100803.81;5072062;28;20364;-70
2024/01/16 11:59:04;;;;;;;;;;;;;;;15.33;47.51;100798.31;5071499;28;19917;-69
2024/01/16 12:01:30;;;;;;;;;;;;;;;15.52;60.46;100795.94;5070508;28;19913;-70
2024/01/16 12:04:05;;;;;;;;;;;;;;;15.79;49.13;100791.56;5071747;28;20376;-70
2024/01/16 12:06:30;;;;;;;;;;;;;;;16.37;61.33;100788.59;5070888;28;19920;-70
2024/01/16 12:09:10;;;;;;;;;;;;;;;17.19;58.71;100782.84;5055099;28;19974;-76
2024/01/16 12:11:37;;;;;;;;;;;;;;;18.32;58.45;100776.31;5074202;28;19959;-76
2024/01/16 12:14:03;;;;;;;;;;;;;;;18.94;47.77;100784.13;5053629;28;20030;-76
2024/01/16 12:16:29;;;;;;;;;;;;;;;19.41;54.60;100782.75;5075497;28;20079;-77
2024/01/16 12:19:07;;;;;;;;;;;;;;;19.73;50.99;100782.91;5068050;28;19917;-77
2024/01/16 12:21:43;;;;;;;;;;;;;;;20.46;55.89;100774.69;5054527;28;19924;-76
2024/01/16 12:24:11;;;;;;;;;;;;;;;20.37;46.66;100770.75;5071492;28;19920;-76